createdAt,value
2023-05-09T00:02:18.485Z,47.33
2023-05-09T00:05:24.307Z,47.47
2023-05-09T00:08:26.774Z,47.49
2023-05-09T00:11:29.591Z,47.39
2023-05-09T00:14:33.641Z,47.52
2023-05-09T00:17:38.593Z,47.42
2023-05-09T00:20:41.210Z,47.56
2023-05-09T00:23:43.847Z,47.59
2023-05-09T00:26:46.106Z,47.93
2023-05-09T00:29:48.685Z,47.59
2023-05-09T00:32:51.329Z,47.60
2023-05-09T00:35:54.562Z,47.59
2023-05-09T00:38:57.321Z,47.66
2023-05-09T00:42:00.010Z,48.10
2023-05-09T00:45:02.952Z,47.91
2023-05-09T00:48:06.214Z,47.85
2023-05-09T00:51:08.777Z,47.83
2023-05-09T00:54:12.144Z,48.02
2023-05-09T00:57:14.714Z,48.30
2023-05-09T01:00:17.823Z,48.04
2023-05-09T01:03:20.605Z,48.12
2023-05-09T01:06:33.012Z,48.25
2023-05-09T01:09:46.925Z,48.17
2023-05-09T01:12:55.235Z,48.33
2023-05-09T01:16:15.428Z,48.56
2023-05-09T01:19:33.185Z,48.62
2023-05-09T01:22:37.938Z,48.62
2023-05-09T01:25:57.854Z,48.60
2023-05-09T01:29:18.843Z,48.85
2023-05-09T01:32:25.967Z,49.19
2023-05-09T01:35:31.564Z,49.21
2023-05-09T01:38:37.658Z,49.27
2023-05-09T01:41:40.238Z,49.47
2023-05-09T01:44:45.930Z,49.50
2023-05-09T01:47:50.097Z,49.70
2023-05-09T01:50:54.822Z,49.68
2023-05-09T01:53:58.580Z,49.96
2023-05-09T01:57:03.848Z,49.92
2023-05-09T02:00:09.164Z,50.03
2023-05-09T02:03:15.349Z,50.04
2023-05-09T02:06:21.377Z,50.17
2023-05-09T02:09:24.192Z,50.31
2023-05-09T02:12:26.875Z,50.31
2023-05-09T02:15:29.650Z,50.48
2023-05-09T02:18:32.786Z,50.53
2023-05-09T02:21:36.247Z,50.56
2023-05-09T02:24:40.066Z,50.76
2023-05-09T02:27:46.131Z,50.77
2023-05-09T02:30:49.945Z,51.03
2023-05-09T02:33:54.904Z,51.14
2023-05-09T02:36:57.693Z,51.11
2023-05-09T02:40:00.344Z,51.15
2023-05-09T02:43:04.089Z,51.29
2023-05-09T02:46:06.691Z,51.50
2023-05-09T02:49:10.205Z,51.59
2023-05-09T02:52:17.583Z,51.82
2023-05-09T02:55:20.390Z,51.96
2023-05-09T02:58:22.787Z,52.05
2023-05-09T03:01:25.561Z,52.23
2023-05-09T03:04:28.126Z,52.35
2023-05-09T03:07:31.216Z,52.54
2023-05-09T03:10:34.396Z,52.54
2023-05-09T03:13:37.809Z,52.57
2023-05-09T03:16:40.290Z,52.60
2023-05-09T03:19:43.369Z,52.95
2023-05-09T03:22:45.821Z,53.15
2023-05-09T03:25:48.513Z,53.37
2023-05-09T03:28:51.596Z,53.43
2023-05-09T03:31:55.157Z,54.36
2023-05-09T03:34:57.889Z,53.48
2023-05-09T03:38:01.512Z,53.47
2023-05-09T03:41:04.139Z,53.59
2023-05-09T03:44:07.992Z,53.54
2023-05-09T03:47:10.223Z,53.71
2023-05-09T03:50:13.076Z,53.66
2023-05-09T03:53:16.312Z,53.70
2023-05-09T03:56:19.484Z,54.25
2023-05-09T03:59:22.277Z,53.55
2023-05-09T04:02:25.678Z,53.45
2023-05-09T04:05:28.937Z,53.52
2023-05-09T04:08:32.340Z,53.45
2023-05-09T04:11:36.080Z,53.57
2023-05-09T04:14:39.482Z,53.50
2023-05-09T04:17:42.379Z,53.43
2023-05-09T04:20:44.900Z,53.36
2023-05-09T04:23:48.288Z,53.60
2023-05-09T04:26:51.040Z,53.35
2023-05-09T04:29:54.163Z,54.74
2023-05-09T04:32:56.880Z,54.38
2023-05-09T04:36:00.657Z,53.88
2023-05-09T04:39:04.021Z,54.16
2023-05-09T04:42:07.830Z,53.52
2023-05-09T04:45:11.816Z,53.44
2023-05-09T04:48:14.981Z,53.19
2023-05-09T04:51:17.536Z,53.20
2023-05-09T04:54:21.501Z,53.47
2023-05-09T04:57:26.573Z,53.04
2023-05-09T05:00:30.111Z,52.98
2023-05-09T05:03:33.038Z,52.88
2023-05-09T05:06:36.203Z,52.71
2023-05-09T05:09:38.972Z,52.61
2023-05-09T05:12:41.835Z,52.41
2023-05-09T05:15:44.574Z,52.19
2023-05-09T05:18:48.182Z,52.13
2023-05-09T05:21:50.929Z,53.31
2023-05-09T05:24:53.735Z,52.62
2023-05-09T05:27:56.052Z,52.10
2023-05-09T05:30:58.857Z,52.26
2023-05-09T05:34:01.932Z,52.03
2023-05-09T05:37:05.659Z,53.15
2023-05-09T05:40:08.848Z,51.65
2023-05-09T05:43:11.925Z,51.25
2023-05-09T05:46:14.466Z,51.17
2023-05-09T05:49:17.957Z,50.90
2023-05-09T05:52:20.468Z,51.12
2023-05-09T05:55:23.510Z,50.88
2023-05-09T05:58:26.665Z,50.77
2023-05-09T06:01:29.469Z,50.51
2023-05-09T06:04:33.168Z,50.41
2023-05-09T06:07:35.706Z,50.76
2023-05-09T06:10:38.432Z,50.24
2023-05-09T06:13:41.102Z,49.89
2023-05-09T06:16:44.158Z,49.95
2023-05-09T06:19:46.605Z,50.05
2023-05-09T06:22:49.372Z,51.45
2023-05-09T06:25:51.778Z,50.05
2023-05-09T06:28:54.461Z,50.93
2023-05-09T06:31:57.009Z,50.58
2023-05-09T06:35:01.760Z,51.44
2023-05-09T06:38:04.147Z,51.30
2023-05-09T06:41:06.788Z,50.54
2023-05-09T06:44:09.230Z,48.30
2023-05-09T06:47:11.858Z,48.92
2023-05-09T06:50:14.271Z,49.69
2023-05-09T06:53:17.165Z,47.88
2023-05-09T06:56:23.111Z,47.26
2023-05-09T06:59:25.954Z,46.40
2023-05-09T07:02:28.330Z,45.04
2023-05-09T07:05:31.442Z,47.72
2023-05-09T07:08:36.496Z,45.30
2023-05-09T07:11:39.192Z,44.33
2023-05-09T07:14:41.968Z,44.38
2023-05-09T07:17:44.889Z,44.49
2023-05-09T07:20:47.279Z,45.08
2023-05-09T07:23:49.987Z,45.94
2023-05-09T07:26:58.828Z,44.45
2023-05-09T07:30:01.509Z,43.68
2023-05-09T07:33:04.098Z,42.79
2023-05-09T07:36:06.918Z,42.92
2023-05-09T07:39:09.368Z,42.22
2023-05-09T07:42:12.014Z,41.51
2023-05-09T07:45:14.563Z,43.28
2023-05-09T07:48:17.458Z,40.49
2023-05-09T07:51:19.879Z,40.88
2023-05-09T07:54:22.627Z,41.55
2023-05-09T07:57:25.061Z,39.60
2023-05-09T08:00:30.665Z,40.00
2023-05-09T08:03:33.582Z,39.63
2023-05-09T08:06:36.776Z,37.97
2023-05-09T08:09:39.445Z,38.62
2023-05-09T08:12:41.854Z,38.16
2023-05-09T08:15:44.782Z,37.01
2023-05-09T08:18:47.233Z,39.12
2023-05-09T08:21:49.906Z,37.02
2023-05-09T08:24:52.264Z,37.29
2023-05-09T08:27:55.020Z,35.31
2023-05-09T08:30:57.929Z,34.63
2023-05-09T08:34:01.162Z,35.29
2023-05-09T08:37:04.433Z,34.13
2023-05-09T08:40:07.895Z,33.75
2023-05-09T08:43:12.391Z,33.37
2023-05-09T08:46:53.970Z,32.66
2023-05-09T08:49:56.654Z,32.30
2023-05-09T08:53:02.687Z,33.31
2023-05-09T08:56:05.691Z,31.82
2023-05-09T08:59:09.068Z,31.88
2023-05-09T09:02:14.523Z,30.57
2023-05-09T09:05:39.636Z,29.88
2023-05-09T09:08:40.983Z,30.74
2023-05-09T09:11:44.644Z,31.18
2023-05-09T09:14:50.162Z,29.56
2023-05-09T09:17:56.779Z,29.49
2023-05-09T09:21:09.502Z,29.23
2023-05-09T09:24:18.150Z,31.06
2023-05-09T09:27:20.461Z,29.29
2023-05-09T09:30:26.685Z,28.35
2023-05-09T09:33:29.593Z,27.39
2023-05-09T09:36:33.080Z,28.65
2023-05-09T09:39:35.760Z,27.08
2023-05-09T09:42:48.861Z,27.82
2023-05-09T09:45:51.713Z,27.68
2023-05-09T09:48:57.680Z,29.06
2023-05-09T09:52:02.784Z,28.99
2023-05-09T09:55:05.879Z,29.33
2023-05-09T09:58:18.174Z,28.81
2023-05-09T10:01:27.611Z,29.74
2023-05-09T10:04:36.541Z,30.32
2023-05-09T10:07:39.001Z,30.80
2023-05-09T10:10:41.892Z,30.59
2023-05-09T10:13:45.741Z,30.22
2023-05-09T10:16:49.783Z,30.46
2023-05-09T10:19:53.053Z,29.89
2023-05-09T10:22:57.223Z,31.99
2023-05-09T10:26:09.930Z,30.72
2023-05-09T10:29:14.811Z,30.11
2023-05-09T10:32:46.687Z,29.97
2023-05-09T10:35:52.063Z,29.29
2023-05-09T10:38:56.337Z,27.78
2023-05-09T10:42:00.729Z,28.53
2023-05-09T10:45:03.237Z,30.20
2023-05-09T10:48:09.009Z,29.55
2023-05-09T10:51:13.255Z,30.55
2023-05-09T10:54:30.092Z,30.56
2023-05-09T10:57:35.846Z,29.36
2023-05-09T11:00:42.592Z,28.99
2023-05-09T11:03:56.323Z,28.61
2023-05-09T11:07:00.592Z,27.92
2023-05-09T11:10:22.679Z,29.23
2023-05-09T11:13:30.456Z,28.06
2023-05-09T11:17:06.738Z,28.29
2023-05-09T11:20:10.172Z,28.66
2023-05-09T11:23:17.391Z,28.79
2023-05-09T11:26:23.710Z,29.10
2023-05-09T11:29:30.334Z,29.81
2023-05-09T11:32:45.588Z,27.83
2023-05-09T11:35:48.685Z,27.74
2023-05-09T11:39:09.007Z,27.97
2023-05-09T11:42:11.576Z,27.76
2023-05-09T11:45:15.672Z,28.38
2023-05-09T11:48:22.598Z,28.70
2023-05-09T11:51:25.238Z,29.67
2023-05-09T11:54:27.956Z,28.49
2023-05-09T11:57:30.864Z,29.16
2023-05-09T12:00:33.395Z,29.71
2023-05-09T12:03:36.461Z,29.65
2023-05-09T12:06:38.914Z,30.17
2023-05-09T12:09:43.600Z,30.49
2023-05-09T12:12:50.337Z,28.96
2023-05-09T12:16:00.798Z,29.54
2023-05-09T12:19:05.159Z,28.60
2023-05-09T12:22:08.285Z,28.75
2023-05-09T12:25:12.196Z,29.63
2023-05-09T12:28:16.196Z,28.81
2023-05-09T12:31:18.853Z,30.73
2023-05-09T12:34:21.871Z,31.03
2023-05-09T12:37:24.314Z,31.33
2023-05-09T12:40:27.906Z,30.47
2023-05-09T12:44:10.798Z,30.21
2023-05-09T12:47:13.650Z,31.87
2023-05-09T12:50:16.120Z,31.10
2023-05-09T12:53:30.829Z,30.25
2023-05-09T12:56:35.804Z,32.27
2023-05-09T12:59:46.710Z,32.82
2023-05-09T13:02:50.863Z,32.99
2023-05-09T13:05:58.190Z,32.58
2023-05-09T13:09:02.511Z,32.86
2023-05-09T13:12:10.014Z,33.64
2023-05-09T13:15:13.004Z,33.36
2023-05-09T13:18:16.104Z,33.07
2023-05-09T13:21:20.545Z,33.25
2023-05-09T13:24:23.995Z,32.95
2023-05-09T13:27:27.905Z,34.42
2023-05-09T13:30:31.454Z,35.25
2023-05-09T13:33:34.178Z,35.20
2023-05-09T13:36:37.431Z,35.27
2023-05-09T13:39:40.093Z,36.01
2023-05-09T13:42:42.835Z,35.67
2023-05-09T13:45:45.778Z,35.43
2023-05-09T13:48:48.529Z,34.47
2023-05-09T13:51:50.980Z,35.47
2023-05-09T13:54:54.830Z,36.11
2023-05-09T13:57:57.259Z,35.28
2023-05-09T14:00:59.904Z,36.53
2023-05-09T14:04:05.503Z,36.35
2023-05-09T14:07:09.627Z,37.07
2023-05-09T14:10:13.035Z,35.87
2023-05-09T14:13:15.799Z,38.05
2023-05-09T14:16:20.177Z,38.41
2023-05-09T14:19:25.680Z,36.70
2023-05-09T14:22:28.391Z,38.16
2023-05-09T14:25:30.800Z,37.20
2023-05-09T14:28:33.584Z,36.96
2023-05-09T14:31:36.303Z,35.25
2023-05-09T14:34:41.592Z,35.28
2023-05-09T14:37:44.091Z,34.70
2023-05-09T14:40:46.853Z,35.11
2023-05-09T14:43:49.240Z,36.10
2023-05-09T14:46:51.968Z,36.11
2023-05-09T14:49:54.538Z,35.65
2023-05-09T14:52:57.392Z,37.07
2023-05-09T14:55:59.780Z,37.44
2023-05-09T14:59:03.814Z,37.07
2023-05-09T15:02:06.104Z,38.17
2023-05-09T15:05:11.925Z,37.65
2023-05-09T15:08:16.787Z,38.13
2023-05-09T15:11:19.605Z,37.57
2023-05-09T15:14:22.124Z,38.20
2023-05-09T15:17:24.775Z,37.95
2023-05-09T15:20:27.187Z,37.97
2023-05-09T15:23:29.837Z,37.78
2023-05-09T15:26:32.399Z,37.33
2023-05-09T15:29:35.207Z,37.90
2023-05-09T15:32:41.386Z,37.98
2023-05-09T15:35:45.162Z,38.44
2023-05-09T15:38:49.627Z,38.66
2023-05-09T15:41:52.665Z,37.80
2023-05-09T15:44:55.036Z,37.61
2023-05-09T15:47:57.709Z,36.72
2023-05-09T15:51:00.283Z,39.12
2023-05-09T15:54:02.993Z,37.14
2023-05-09T15:57:05.604Z,38.75
2023-05-09T16:00:10.053Z,39.93
2023-05-09T16:03:15.358Z,38.89
2023-05-09T16:06:18.369Z,39.92
2023-05-09T16:09:20.871Z,38.25
2023-05-09T16:12:25.207Z,38.84
2023-05-09T16:15:27.740Z,38.36
2023-05-09T16:18:31.216Z,38.99
2023-05-09T16:21:33.865Z,37.84
2023-05-09T16:24:37.586Z,38.13
2023-05-09T16:27:40.102Z,37.89
2023-05-09T16:30:42.873Z,38.27
2023-05-09T16:33:47.054Z,38.03
2023-05-09T16:36:50.112Z,37.23
2023-05-09T16:39:52.826Z,38.65
2023-05-09T16:42:55.474Z,39.36
2023-05-09T16:45:57.885Z,38.87
2023-05-09T16:49:00.555Z,39.49
2023-05-09T16:52:02.976Z,39.08
2023-05-09T16:55:06.244Z,37.86
2023-05-09T16:58:08.575Z,38.17
2023-05-09T17:01:11.567Z,38.23
2023-05-09T17:04:17.083Z,39.02
2023-05-09T17:07:22.007Z,39.46
2023-05-09T17:10:24.718Z,39.83
2023-05-09T17:13:28.358Z,39.40
2023-05-09T17:16:32.390Z,39.54
2023-05-09T17:19:37.522Z,37.81
2023-05-09T17:22:39.987Z,38.57
2023-05-09T17:25:43.597Z,38.39
2023-05-09T17:28:49.796Z,38.95
2023-05-09T17:31:52.720Z,39.78
2023-05-09T17:34:55.667Z,39.40
2023-05-09T17:37:58.628Z,39.48
2023-05-09T17:41:01.104Z,39.69
2023-05-09T17:44:04.119Z,39.12
2023-05-09T17:47:06.676Z,39.69
2023-05-09T17:50:10.637Z,40.28
2023-05-09T17:53:14.064Z,40.63
2023-05-09T17:56:16.675Z,40.47
2023-05-09T17:59:19.583Z,40.61
2023-05-09T18:02:24.194Z,40.62
2023-05-09T18:05:27.508Z,39.54
2023-05-09T18:08:31.270Z,40.73
2023-05-09T18:11:35.293Z,40.20
2023-05-09T18:14:38.995Z,40.84
2023-05-09T18:17:44.498Z,40.83
2023-05-09T18:20:49.112Z,40.16
2023-05-09T18:23:59.295Z,40.81
2023-05-09T18:27:03.212Z,39.76
2023-05-09T18:30:08.122Z,40.91
2023-05-09T18:33:10.784Z,41.05
2023-05-09T18:36:15.177Z,40.55
2023-05-09T18:39:17.733Z,40.68
2023-05-09T18:42:20.678Z,40.97
2023-05-09T18:45:23.429Z,40.91
2023-05-09T18:48:26.239Z,41.20
2023-05-09T18:51:29.777Z,41.60
2023-05-09T18:54:32.681Z,41.37
2023-05-09T18:57:35.078Z,41.21
2023-05-09T19:00:39.400Z,40.45
2023-05-09T19:03:45.793Z,42.43
2023-05-09T19:06:48.714Z,66.56
2023-05-09T19:09:51.515Z,63.97
2023-05-09T19:12:54.271Z,64.57
2023-05-09T19:15:56.699Z,72.14
2023-05-09T19:18:59.653Z,69.60
2023-05-09T19:22:02.133Z,64.57
2023-05-09T19:25:05.035Z,70.72
2023-05-09T19:28:07.326Z,70.60
2023-05-09T19:31:10.016Z,74.35
2023-05-09T19:34:12.713Z,70.54
2023-05-09T19:37:15.355Z,67.27
2023-05-09T19:40:18.090Z,65.14
2023-05-09T19:43:20.853Z,71.25
2023-05-09T19:46:23.305Z,67.65
2023-05-09T19:49:26.000Z,73.61
2023-05-09T19:52:29.624Z,69.62
2023-05-09T19:55:32.102Z,74.12
2023-05-09T19:58:34.803Z,74.24
2023-05-09T20:01:38.599Z,73.01
2023-05-09T20:04:46.535Z,68.77
2023-05-09T20:07:49.548Z,70.87
2023-05-09T20:10:52.826Z,69.18
2023-05-09T20:13:55.362Z,70.28
2023-05-09T20:16:58.073Z,68.60
2023-05-09T20:20:00.838Z,68.03
2023-05-09T20:23:03.997Z,68.63
2023-05-09T20:26:06.562Z,65.47
2023-05-09T20:29:09.268Z,67.17
2023-05-09T20:32:11.552Z,59.76
2023-05-09T20:35:14.252Z,65.02
2023-05-09T20:38:16.765Z,64.76
2023-05-09T20:41:19.409Z,63.82
2023-05-09T20:44:21.736Z,63.91
2023-05-09T20:47:24.578Z,63.73
2023-05-09T20:50:27.074Z,62.04
2023-05-09T20:53:31.765Z,62.58
2023-05-09T20:56:35.631Z,60.70
2023-05-09T20:59:38.390Z,62.63
2023-05-09T21:02:40.950Z,63.40
2023-05-09T21:05:43.692Z,62.00
2023-05-09T21:08:46.001Z,60.71
2023-05-09T21:11:48.586Z,63.75
2023-05-09T21:14:51.152Z,61.91
2023-05-09T21:17:53.773Z,63.02
2023-05-09T21:20:56.124Z,56.60
2023-05-09T21:24:09.095Z,59.36
2023-05-09T21:27:11.521Z,56.96
2023-05-09T21:30:15.041Z,56.11
2023-05-09T21:33:17.506Z,59.52
2023-05-09T21:36:20.241Z,55.83
2023-05-09T21:39:22.567Z,55.41
2023-05-09T21:42:25.268Z,55.12
2023-05-09T21:45:27.869Z,54.97
2023-05-09T21:48:30.576Z,54.67
2023-05-09T21:51:34.900Z,54.70
2023-05-09T21:54:37.525Z,54.48
2023-05-09T21:57:39.803Z,54.90
2023-05-09T22:00:42.418Z,56.06
2023-05-09T22:03:45.783Z,56.40
2023-05-09T22:06:48.619Z,54.83
2023-05-09T22:09:51.763Z,54.75
2023-05-09T22:12:54.200Z,54.79
2023-05-09T22:15:56.854Z,54.88
2023-05-09T22:18:59.191Z,55.44
2023-05-09T22:22:01.766Z,55.00
2023-05-09T22:25:05.040Z,54.96
2023-05-09T22:28:07.700Z,54.91
2023-05-09T22:31:10.600Z,55.26
2023-05-09T22:34:13.240Z,55.33
2023-05-09T22:37:17.022Z,55.19
2023-05-09T22:40:21.098Z,56.45
2023-05-09T22:43:25.397Z,56.06
2023-05-09T22:46:31.462Z,55.73
2023-05-09T22:49:33.956Z,55.93
2023-05-09T22:52:36.612Z,55.99
2023-05-09T22:55:38.992Z,55.89
2023-05-09T22:58:41.717Z,56.13
2023-05-09T23:01:44.136Z,58.29
2023-05-09T23:04:47.010Z,59.37
2023-05-09T23:11:46.797Z,59.33
2023-05-09T23:14:49.484Z,60.02
2023-05-09T23:17:52.110Z,61.47
2023-05-09T23:20:54.476Z,59.15
2023-05-09T23:23:57.148Z,62.40
2023-05-09T23:26:59.539Z,59.53
2023-05-09T23:30:02.195Z,59.76
2023-05-09T23:33:04.567Z,60.11
2023-05-09T23:36:07.656Z,61.24
2023-05-09T23:39:10.052Z,60.33
2023-05-09T23:42:12.705Z,61.38
2023-05-09T23:45:15.111Z,60.63
2023-05-09T23:48:17.821Z,60.56
2023-05-09T23:51:21.616Z,61.57
2023-05-09T23:54:24.499Z,61.52
2023-05-09T23:57:29.231Z,61.37
